createdAt,value
2017-07-03T00:02:13.327Z,3.10
2017-07-03T00:04:41.641Z,3.47
2017-07-03T00:07:09.932Z,3.30
2017-07-03T00:09:38.208Z,3.20
2017-07-03T00:12:07.265Z,2.87
2017-07-03T00:14:35.526Z,3.10
2017-07-03T00:17:03.819Z,3.25
2017-07-03T00:19:32.184Z,3.40
2017-07-03T00:22:00.493Z,3.72
2017-07-03T00:24:28.799Z,3.08
2017-07-03T00:26:57.848Z,3.40
2017-07-03T00:29:26.137Z,3.17
2017-07-03T00:31:54.399Z,3.35
2017-07-03T00:34:22.688Z,3.30
2017-07-03T00:36:50.955Z,3.50
2017-07-03T00:39:19.247Z,3.87
2017-07-03T00:41:47.524Z,3.90
2017-07-03T00:44:15.809Z,3.40
2017-07-03T00:46:44.087Z,3.78
2017-07-03T00:49:12.376Z,4.40
2017-07-03T00:51:40.640Z,4.90
2017-07-03T00:54:08.932Z,4.60
2017-07-03T00:56:37.199Z,3.72
2017-07-03T00:59:05.479Z,3.58
2017-07-03T01:01:33.764Z,3.78
2017-07-03T01:04:02.027Z,4.07
2017-07-03T01:06:30.325Z,4.55
2017-07-03T01:08:58.583Z,4.15
2017-07-03T01:11:26.866Z,4.37
2017-07-03T01:13:55.134Z,4.18
2017-07-03T01:16:23.410Z,4.57
2017-07-03T01:18:51.685Z,4.55
2017-07-03T01:21:19.990Z,4.65
2017-07-03T01:23:48.259Z,4.60
2017-07-03T01:26:16.567Z,4.10
2017-07-03T01:28:44.826Z,4.82
2017-07-03T01:31:13.091Z,5.50
2017-07-03T01:33:41.371Z,5.07
2017-07-03T01:36:09.638Z,5.03
2017-07-03T01:38:37.918Z,4.50
2017-07-03T01:41:06.899Z,4.53
2017-07-03T01:43:35.187Z,4.37
2017-07-03T01:46:03.447Z,5.07
2017-07-03T01:48:31.735Z,4.68
2017-07-03T01:51:00.019Z,4.85
2017-07-03T01:53:29.107Z,4.72
2017-07-03T01:55:57.375Z,5.00
2017-07-03T01:58:25.658Z,5.65
2017-07-03T02:00:53.919Z,4.68
2017-07-03T02:03:22.192Z,5.43
2017-07-03T02:05:50.476Z,6.03
2017-07-03T02:08:18.755Z,6.10
2017-07-03T02:10:47.067Z,5.20
2017-07-03T02:13:15.348Z,5.55
2017-07-03T02:15:43.628Z,4.78
2017-07-03T02:18:11.889Z,4.95
2017-07-03T02:20:40.167Z,4.95
2017-07-03T02:23:08.439Z,4.78
2017-07-03T02:25:36.727Z,4.97
2017-07-03T02:28:05.005Z,5.35
2017-07-03T02:30:33.298Z,4.50
2017-07-03T02:33:01.557Z,5.55
2017-07-03T02:35:29.818Z,5.07
2017-07-03T02:37:58.108Z,6.00
2017-07-03T02:40:26.367Z,4.78
2017-07-03T02:42:54.650Z,6.00
2017-07-03T02:45:22.955Z,4.90
2017-07-03T02:47:51.228Z,5.57
2017-07-03T02:50:19.500Z,5.85
2017-07-03T02:52:47.815Z,6.00
2017-07-03T02:55:16.847Z,5.18
2017-07-03T02:57:45.158Z,6.50
2017-07-03T03:00:13.414Z,6.05
2017-07-03T03:02:41.682Z,5.53
2017-07-03T03:05:09.964Z,5.90
2017-07-03T03:07:38.231Z,6.55
2017-07-03T03:10:06.519Z,6.00
2017-07-03T03:12:34.783Z,5.53
2017-07-03T03:15:03.062Z,6.45
2017-07-03T03:17:31.333Z,6.30
2017-07-03T03:19:59.610Z,5.50
2017-07-03T03:22:27.878Z,6.25
2017-07-03T03:24:56.163Z,6.75
2017-07-03T03:27:24.434Z,6.20
2017-07-03T03:29:52.765Z,4.97
2017-07-03T03:32:21.817Z,6.10
2017-07-03T03:34:50.079Z,6.20
2017-07-03T03:37:18.371Z,6.10
2017-07-03T03:39:46.631Z,5.45
2017-07-03T03:42:14.914Z,5.62
2017-07-03T03:44:43.191Z,5.20
2017-07-03T03:47:11.475Z,5.32
2017-07-03T03:49:39.743Z,6.18
2017-07-03T03:52:08.041Z,6.20
2017-07-03T03:54:36.317Z,5.30
2017-07-03T03:57:04.611Z,5.97
2017-07-03T03:59:32.871Z,5.78
2017-07-03T04:02:01.144Z,5.35
2017-07-03T04:04:29.435Z,5.82
2017-07-03T04:06:57.700Z,5.60
2017-07-03T04:09:25.985Z,5.32
2017-07-03T04:11:54.256Z,6.10
2017-07-03T04:14:22.549Z,5.40
2017-07-03T04:16:50.815Z,4.97
2017-07-03T04:19:19.092Z,5.57
2017-07-03T04:21:47.409Z,4.72
2017-07-03T04:24:15.724Z,5.75
2017-07-03T04:26:43.999Z,6.65
2017-07-03T04:29:12.299Z,5.62
2017-07-03T04:31:40.567Z,6.30
2017-07-03T04:34:08.837Z,6.45
2017-07-03T04:36:37.123Z,5.15
2017-07-03T04:39:05.403Z,5.15
2017-07-03T04:41:33.687Z,5.28
2017-07-03T04:44:01.951Z,5.43
2017-07-03T04:46:30.236Z,5.30
2017-07-03T04:48:58.500Z,5.68
2017-07-03T04:51:26.777Z,5.07
2017-07-03T04:53:55.067Z,4.80
2017-07-03T04:56:23.336Z,5.62
2017-07-03T04:58:51.629Z,5.43
2017-07-03T05:01:19.905Z,5.90
2017-07-03T05:03:48.188Z,4.60
2017-07-03T05:06:16.465Z,5.05
2017-07-03T05:08:44.760Z,3.92
2017-07-03T05:11:13.035Z,5.30
2017-07-03T05:13:41.335Z,4.50
2017-07-03T05:16:09.604Z,5.32
2017-07-03T05:18:37.871Z,4.57
2017-07-03T05:21:06.159Z,4.90
2017-07-03T05:23:34.431Z,5.18
2017-07-03T05:26:02.727Z,4.12
2017-07-03T05:28:31.768Z,4.37
2017-07-03T05:31:00.058Z,4.05
2017-07-03T05:33:28.317Z,3.55
2017-07-03T05:35:56.655Z,3.70
2017-07-03T05:38:25.701Z,4.25
2017-07-03T05:40:53.972Z,3.85
2017-07-03T05:43:27.851Z,4.10
2017-07-03T05:45:56.131Z,3.80
2017-07-03T05:48:24.424Z,4.45
2017-07-03T05:50:52.705Z,4.57
2017-07-03T05:53:20.979Z,4.18
2017-07-03T05:55:49.256Z,4.10
2017-07-03T05:58:17.536Z,3.50
2017-07-03T06:00:45.800Z,3.75
2017-07-03T06:03:14.109Z,4.50
2017-07-03T06:05:42.380Z,3.62
2017-07-03T06:08:10.678Z,3.90
2017-07-03T06:10:38.959Z,3.90
2017-07-03T06:13:07.235Z,4.10
2017-07-03T06:15:35.531Z,3.87
2017-07-03T06:18:04.568Z,4.10
2017-07-03T06:20:32.859Z,4.10
2017-07-03T06:23:01.139Z,3.75
2017-07-03T06:25:29.424Z,4.95
2017-07-03T06:27:57.680Z,4.22
2017-07-03T06:30:25.994Z,5.47
2017-07-03T06:32:54.266Z,4.30
2017-07-03T06:35:23.451Z,4.10
2017-07-03T06:37:51.740Z,4.45
2017-07-03T06:40:20.011Z,4.28
2017-07-03T06:42:48.309Z,5.03
2017-07-03T06:45:16.579Z,4.68
2017-07-03T06:47:44.866Z,4.20
2017-07-03T06:50:13.899Z,4.62
2017-07-03T06:52:42.195Z,4.70
2017-07-03T06:55:10.463Z,4.10
2017-07-03T06:57:38.771Z,3.80
2017-07-03T07:00:07.035Z,4.50
2017-07-03T07:02:35.324Z,3.67
2017-07-03T07:05:03.611Z,4.37
2017-07-03T07:07:31.900Z,5.00
2017-07-03T07:10:00.200Z,4.07
2017-07-03T07:12:28.475Z,4.65
2017-07-03T07:14:56.767Z,4.60
2017-07-03T07:17:25.031Z,3.95
2017-07-03T07:19:53.311Z,4.07
2017-07-03T07:22:21.575Z,4.60
2017-07-03T07:24:50.653Z,4.12
2017-07-03T07:27:18.929Z,3.75
2017-07-03T07:29:47.190Z,4.07
2017-07-03T07:32:15.484Z,4.40
2017-07-03T07:34:43.748Z,4.03
2017-07-03T07:37:12.029Z,4.05
2017-07-03T07:39:40.291Z,4.03
2017-07-03T07:42:08.579Z,3.70
2017-07-03T07:44:36.847Z,4.00
2017-07-03T07:47:05.177Z,4.47
2017-07-03T07:49:33.401Z,4.20
2017-07-03T07:52:01.685Z,4.70
2017-07-03T07:54:29.955Z,4.95
2017-07-03T07:56:58.267Z,5.10
2017-07-03T07:59:27.303Z,4.12
2017-07-03T08:01:55.572Z,4.50
2017-07-03T08:04:23.848Z,4.57
2017-07-03T08:06:52.124Z,4.90
2017-07-03T08:09:20.411Z,5.43
2017-07-03T08:11:48.678Z,4.37
2017-07-03T08:14:16.967Z,5.43
2017-07-03T08:16:45.235Z,5.47
2017-07-03T08:19:13.520Z,5.22
2017-07-03T08:21:41.784Z,6.00
2017-07-03T08:24:10.106Z,5.25
2017-07-03T08:26:38.366Z,5.80
2017-07-03T08:29:06.648Z,5.20
2017-07-03T08:31:34.932Z,5.70
2017-07-03T08:34:03.199Z,5.22
2017-07-03T08:36:31.490Z,4.90
2017-07-03T08:38:59.752Z,4.25
2017-07-03T08:41:28.041Z,5.03
2017-07-03T08:43:56.307Z,4.40
2017-07-03T08:46:24.592Z,4.57
2017-07-03T08:48:52.869Z,4.85
2017-07-03T08:51:21.148Z,4.28
2017-07-03T08:53:49.412Z,4.07
2017-07-03T08:56:17.696Z,4.30
2017-07-03T08:58:45.980Z,5.00
2017-07-03T09:01:14.256Z,3.85
2017-07-03T09:03:42.542Z,3.50
2017-07-03T09:06:10.811Z,3.33
2017-07-03T09:08:39.097Z,3.90
2017-07-03T09:11:07.372Z,3.20
2017-07-03T09:13:35.669Z,4.00
2017-07-03T09:16:03.940Z,3.37
2017-07-03T09:18:32.253Z,3.00
2017-07-03T09:21:00.528Z,3.00
2017-07-03T09:23:28.795Z,3.67
2017-07-03T09:25:57.079Z,3.20
2017-07-03T09:28:25.353Z,3.35
2017-07-03T09:30:53.645Z,2.70
2017-07-03T09:33:21.913Z,2.60
2017-07-03T09:35:50.205Z,2.80
2017-07-03T09:38:18.480Z,2.47
2017-07-03T09:40:46.750Z,2.62
2017-07-03T09:43:15.051Z,2.40
2017-07-03T09:45:43.312Z,2.60
2017-07-03T09:48:11.601Z,2.40
2017-07-03T09:50:39.868Z,2.70
2017-07-03T09:53:08.159Z,2.40
2017-07-03T09:55:36.426Z,3.00
2017-07-03T09:58:04.723Z,2.78
2017-07-03T10:00:32.995Z,2.55
2017-07-03T10:03:01.277Z,3.33
2017-07-03T10:05:29.556Z,3.70
2017-07-03T10:07:57.823Z,2.95
2017-07-03T10:10:26.113Z,2.37
2017-07-03T10:12:54.387Z,3.03
2017-07-03T10:15:22.682Z,2.75
2017-07-03T10:17:50.939Z,2.45
2017-07-03T10:20:19.247Z,2.85
2017-07-03T10:22:47.524Z,2.80
2017-07-03T10:25:16.557Z,2.87
2017-07-03T10:27:44.874Z,2.70
2017-07-03T10:30:13.139Z,2.97
2017-07-03T10:32:41.425Z,2.95
2017-07-03T10:35:09.698Z,3.03
2017-07-03T10:37:37.991Z,2.60
2017-07-03T10:40:06.264Z,2.55
2017-07-03T10:42:34.553Z,2.42
2017-07-03T10:45:02.831Z,2.42
2017-07-03T10:47:31.124Z,2.45
2017-07-03T10:50:00.157Z,2.08
2017-07-03T10:52:28.455Z,2.37
2017-07-03T10:54:56.734Z,2.67
2017-07-03T10:57:25.004Z,2.10
2017-07-03T10:59:53.292Z,2.92
2017-07-03T11:02:21.571Z,2.65
2017-07-03T11:04:49.858Z,2.42
2017-07-03T11:07:18.132Z,2.08
2017-07-03T11:09:46.420Z,2.37
2017-07-03T11:12:15.459Z,2.17
2017-07-03T11:14:43.748Z,2.28
2017-07-03T11:17:12.015Z,2.22
2017-07-03T11:19:40.307Z,1.92
2017-07-03T11:22:08.576Z,1.95
2017-07-03T11:24:36.877Z,1.90
2017-07-03T11:27:05.163Z,1.80
2017-07-03T11:29:33.426Z,2.37
2017-07-03T11:32:01.707Z,2.20
2017-07-03T11:34:29.980Z,2.00
2017-07-03T11:36:58.268Z,2.28
2017-07-03T11:39:26.539Z,2.15
2017-07-03T11:41:54.822Z,2.20
2017-07-03T11:44:23.088Z,1.90
2017-07-03T11:46:51.374Z,2.30
2017-07-03T11:49:19.646Z,2.10
2017-07-03T11:51:47.933Z,1.70
2017-07-03T11:54:16.200Z,2.33
2017-07-03T11:56:44.503Z,1.98
2017-07-03T11:59:12.778Z,2.40
2017-07-03T12:01:41.051Z,2.10
2017-07-03T12:04:09.341Z,2.67
2017-07-03T12:06:38.377Z,2.10
2017-07-03T12:09:06.674Z,2.10
2017-07-03T12:11:34.928Z,2.00
2017-07-03T12:14:03.215Z,2.10
2017-07-03T12:16:31.485Z,2.25
2017-07-03T12:18:59.774Z,2.40
2017-07-03T12:21:28.044Z,2.05
2017-07-03T12:23:56.361Z,2.08
2017-07-03T12:26:24.635Z,2.25
2017-07-03T12:28:53.020Z,2.15
2017-07-03T12:31:21.303Z,2.10
2017-07-03T12:33:50.349Z,2.28
2017-07-03T12:36:18.640Z,2.33
2017-07-03T12:38:46.912Z,2.35
2017-07-03T12:41:15.205Z,2.20
2017-07-03T12:43:43.486Z,2.30
2017-07-03T12:46:11.770Z,2.28
2017-07-03T12:48:40.049Z,1.92
2017-07-03T12:51:08.343Z,1.95
2017-07-03T12:53:37.384Z,2.12
2017-07-03T12:56:05.701Z,2.28
2017-07-03T12:58:33.980Z,1.80
2017-07-03T13:01:02.256Z,2.15
2017-07-03T13:03:30.563Z,2.53
2017-07-03T13:05:59.595Z,1.95
2017-07-03T13:08:27.879Z,1.67
2017-07-03T13:10:56.164Z,1.60
2017-07-03T13:13:24.458Z,1.60
2017-07-03T13:15:52.772Z,1.85
2017-07-03T13:18:21.062Z,1.90
2017-07-03T13:20:49.342Z,1.95
2017-07-03T13:23:17.619Z,3.05
2017-07-03T13:25:45.904Z,1.83
2017-07-03T13:28:14.212Z,2.15
2017-07-03T13:30:42.493Z,1.85
2017-07-03T13:33:10.768Z,1.70
2017-07-03T13:35:39.059Z,2.40
2017-07-03T13:38:07.330Z,2.75
2017-07-03T13:40:35.624Z,2.00
2017-07-03T13:43:03.910Z,2.12
2017-07-03T13:45:32.977Z,2.05
2017-07-03T13:48:01.252Z,2.03
2017-07-03T13:50:29.548Z,2.22
2017-07-03T13:52:58.587Z,2.25
2017-07-03T13:55:26.888Z,2.00
2017-07-03T13:57:55.177Z,1.73
2017-07-03T14:00:23.503Z,2.00
2017-07-03T14:02:51.783Z,1.75
2017-07-03T14:05:20.071Z,1.85
2017-07-03T14:07:48.363Z,1.60
2017-07-03T14:10:16.640Z,1.70
2017-07-03T14:12:44.940Z,1.87
2017-07-03T14:15:13.213Z,1.92
2017-07-03T14:17:41.497Z,1.77
2017-07-03T14:20:09.773Z,1.85
2017-07-03T14:22:38.068Z,2.00
2017-07-03T14:25:07.111Z,2.33
2017-07-03T14:27:35.424Z,1.90
2017-07-03T14:30:03.695Z,1.70
2017-07-03T14:32:32.010Z,1.62
2017-07-03T14:35:01.051Z,2.50
2017-07-03T14:37:29.331Z,1.90
2017-07-03T14:39:57.616Z,2.28
2017-07-03T14:42:25.923Z,2.30
2017-07-03T14:44:54.217Z,2.12
2017-07-03T14:47:23.244Z,2.12
2017-07-03T14:49:51.528Z,2.15
2017-07-03T14:52:19.800Z,2.00
2017-07-03T14:54:48.095Z,1.75
2017-07-03T14:57:16.377Z,2.40
2017-07-03T14:59:44.658Z,2.20
2017-07-03T15:02:12.936Z,2.40
2017-07-03T15:04:41.246Z,2.60
2017-07-03T15:07:09.519Z,2.83
2017-07-03T15:09:38.575Z,2.12
2017-07-03T15:12:06.850Z,2.10
2017-07-03T15:14:35.140Z,2.05
2017-07-03T15:17:03.417Z,2.00
2017-07-03T15:19:31.727Z,1.85
2017-07-03T15:22:00.003Z,2.05
2017-07-03T15:24:28.271Z,2.17
2017-07-03T15:26:56.562Z,1.85
2017-07-03T15:29:24.840Z,2.05
2017-07-03T15:31:53.124Z,1.90
2017-07-03T15:34:21.412Z,1.98
2017-07-03T15:36:49.711Z,1.90
2017-07-03T15:39:17.984Z,1.80
2017-07-03T15:41:46.291Z,1.70
2017-07-03T15:44:14.556Z,2.20
2017-07-03T15:46:42.867Z,1.95
2017-07-03T15:49:11.923Z,1.67
2017-07-03T15:51:40.240Z,2.10
2017-07-03T15:54:09.282Z,1.90
2017-07-03T15:56:37.579Z,2.25
2017-07-03T15:59:05.875Z,2.10
2017-07-03T16:01:34.191Z,1.92
2017-07-03T16:04:02.482Z,2.12
2017-07-03T16:06:30.770Z,2.05
2017-07-03T16:08:59.058Z,2.05
2017-07-03T16:11:27.331Z,2.22
2017-07-03T16:13:55.632Z,2.12
2017-07-03T16:16:23.915Z,2.10
2017-07-03T16:18:52.209Z,1.87
2017-07-03T16:21:20.488Z,2.30
2017-07-03T16:23:49.565Z,1.90
2017-07-03T16:26:17.849Z,2.17
2017-07-03T16:28:46.130Z,2.25
2017-07-03T16:31:14.424Z,2.45
2017-07-03T16:33:43.482Z,2.28
2017-07-03T16:36:11.767Z,1.83
2017-07-03T16:38:40.047Z,2.33
2017-07-03T16:41:08.335Z,2.10
2017-07-03T16:43:37.374Z,2.30
2017-07-03T16:46:05.668Z,2.25
2017-07-03T16:48:33.946Z,2.10
2017-07-03T16:51:02.240Z,2.30
2017-07-03T16:53:30.507Z,2.00
2017-07-03T16:55:58.822Z,2.20
2017-07-03T16:58:27.095Z,2.42
2017-07-03T17:00:56.140Z,2.30
2017-07-03T17:03:24.435Z,2.62
2017-07-03T17:05:52.708Z,2.20
2017-07-03T17:08:21.004Z,2.35
2017-07-03T17:10:49.278Z,2.03
2017-07-03T17:13:17.567Z,2.28
2017-07-03T17:15:45.844Z,2.22
2017-07-03T17:18:14.142Z,2.12
2017-07-03T17:20:43.180Z,2.25
2017-07-03T17:23:11.483Z,2.62
2017-07-03T17:25:39.748Z,2.10
2017-07-03T17:28:08.070Z,2.53
2017-07-03T17:30:37.107Z,2.15
2017-07-03T17:33:05.383Z,2.40
2017-07-03T17:35:33.692Z,2.30
2017-07-03T17:38:01.969Z,2.67
2017-07-03T17:40:30.286Z,2.65
2017-07-03T17:42:58.563Z,2.17
2017-07-03T17:45:26.847Z,2.42
2017-07-03T17:47:55.127Z,2.35
2017-07-03T17:50:23.428Z,2.45
2017-07-03T17:52:51.728Z,2.20
2017-07-03T17:55:20.044Z,2.40
2017-07-03T17:57:48.409Z,2.45
2017-07-03T18:00:16.690Z,2.12
2017-07-03T18:02:45.731Z,2.30
2017-07-03T18:05:14.000Z,2.95
2017-07-03T18:07:42.332Z,2.50
2017-07-03T18:10:10.603Z,2.65
2017-07-03T18:12:38.894Z,2.53
2017-07-03T18:15:07.179Z,2.72
2017-07-03T18:17:35.520Z,2.75
2017-07-03T18:20:03.771Z,2.20
2017-07-03T18:22:32.068Z,2.60
2017-07-03T18:25:00.340Z,2.25
2017-07-03T18:27:28.627Z,2.42
2017-07-03T18:29:56.890Z,2.45
2017-07-03T18:32:25.173Z,2.25
2017-07-03T18:34:53.459Z,3.08
2017-07-03T18:37:21.744Z,2.80
2017-07-03T18:39:50.041Z,2.65
2017-07-03T18:42:19.077Z,2.90
2017-07-03T18:44:47.372Z,2.80
2017-07-03T18:47:15.645Z,2.50
2017-07-03T18:49:43.947Z,2.87
2017-07-03T18:52:12.224Z,2.65
2017-07-03T18:54:40.528Z,2.45
2017-07-03T18:57:09.569Z,2.85
2017-07-03T18:59:37.864Z,2.60
2017-07-03T19:02:06.155Z,2.70
2017-07-03T19:04:34.488Z,3.12
2017-07-03T19:07:02.792Z,2.70
2017-07-03T19:09:31.071Z,2.85
2017-07-03T19:11:59.375Z,2.67
2017-07-03T19:14:27.665Z,2.62
2017-07-03T19:16:55.977Z,2.80
2017-07-03T19:19:24.252Z,2.78
2017-07-03T19:21:52.548Z,2.97
2017-07-03T19:24:20.836Z,2.80
2017-07-03T19:26:49.119Z,2.70
2017-07-03T19:29:18.371Z,3.35
2017-07-03T19:31:46.681Z,3.33
2017-07-03T19:34:14.977Z,3.00
2017-07-03T19:36:43.247Z,2.35
2017-07-03T19:39:11.539Z,3.17
2017-07-03T19:41:39.834Z,3.50
2017-07-03T19:44:08.125Z,3.92
2017-07-03T19:46:36.423Z,3.45
2017-07-03T19:49:04.716Z,3.53
2017-07-03T19:51:32.977Z,3.22
2017-07-03T19:54:01.269Z,3.08
2017-07-03T19:56:29.544Z,3.37
2017-07-03T19:58:57.874Z,3.40
2017-07-03T20:01:26.916Z,2.80
2017-07-03T20:03:55.241Z,3.12
2017-07-03T20:06:23.508Z,3.05
2017-07-03T20:08:52.562Z,3.47
2017-07-03T20:11:20.852Z,2.85
2017-07-03T20:13:49.124Z,3.55
2017-07-03T20:16:17.415Z,3.90
2017-07-03T20:18:45.683Z,3.60
2017-07-03T20:21:13.971Z,3.33
2017-07-03T20:23:42.248Z,3.58
2017-07-03T20:26:10.549Z,3.75
2017-07-03T20:28:38.834Z,3.50
2017-07-03T20:31:07.128Z,3.22
2017-07-03T20:33:35.399Z,3.55
2017-07-03T20:36:04.429Z,4.00
2017-07-03T20:38:32.717Z,3.17
2017-07-03T20:41:00.995Z,3.80
2017-07-03T20:43:29.283Z,3.53
2017-07-03T20:45:57.553Z,2.92
2017-07-03T20:48:25.835Z,3.40
2017-07-03T20:50:54.111Z,3.20
2017-07-03T20:53:22.412Z,3.37
2017-07-03T20:55:50.713Z,3.00
2017-07-03T20:58:19.755Z,2.80
2017-07-03T21:00:48.040Z,3.33
2017-07-03T21:03:16.311Z,2.85
2017-07-03T21:05:44.595Z,3.05
2017-07-03T21:08:12.879Z,3.28
2017-07-03T21:10:41.167Z,3.55
2017-07-03T21:13:09.423Z,2.97
2017-07-03T21:15:37.699Z,4.40
2017-07-03T21:18:05.973Z,3.58
2017-07-03T21:20:34.260Z,2.90
2017-07-03T21:23:02.523Z,3.80
2017-07-03T21:25:30.815Z,3.75
2017-07-03T21:27:59.079Z,3.47
2017-07-03T21:30:27.351Z,3.70
2017-07-03T21:32:55.644Z,3.60
2017-07-03T21:35:23.915Z,3.80
2017-07-03T21:37:52.208Z,3.45
2017-07-03T21:40:20.481Z,3.28
2017-07-03T21:42:48.768Z,4.32
2017-07-03T21:45:17.037Z,4.50
2017-07-03T21:47:45.324Z,4.70
2017-07-03T21:50:13.602Z,4.62
2017-07-03T21:52:41.883Z,3.60
2017-07-03T21:55:10.934Z,3.90
2017-07-03T21:57:39.223Z,4.30
2017-07-03T22:00:07.503Z,4.60
2017-07-03T22:02:35.775Z,5.00
2017-07-03T22:05:04.062Z,4.20
2017-07-03T22:07:32.338Z,3.53
2017-07-03T22:10:00.626Z,4.10
2017-07-03T22:12:28.893Z,3.58
2017-07-03T22:14:57.177Z,3.92
2017-07-03T22:17:25.445Z,4.10
2017-07-03T22:19:53.753Z,3.90
2017-07-03T22:22:22.007Z,3.45
2017-07-03T22:24:50.313Z,3.30
2017-07-03T22:27:18.589Z,3.47
2017-07-03T22:29:46.861Z,3.67
2017-07-03T22:32:15.924Z,3.45
2017-07-03T22:34:44.192Z,3.50
2017-07-03T22:37:12.481Z,3.90
2017-07-03T22:39:40.744Z,3.75
2017-07-03T22:42:09.035Z,3.92
2017-07-03T22:44:37.300Z,3.62
2017-07-03T22:47:05.591Z,3.70
2017-07-03T22:49:33.860Z,3.60
2017-07-03T22:52:02.131Z,3.22
2017-07-03T22:54:30.452Z,3.85
2017-07-03T22:56:59.487Z,3.40
2017-07-03T22:59:27.778Z,3.08
2017-07-03T23:01:56.044Z,3.28
2017-07-03T23:04:24.332Z,4.10
2017-07-03T23:06:52.605Z,3.67
2017-07-03T23:09:20.902Z,3.37
2017-07-03T23:11:49.175Z,3.97
2017-07-03T23:14:17.478Z,3.97
2017-07-03T23:16:45.793Z,3.30
2017-07-03T23:19:14.064Z,3.70
2017-07-03T23:21:42.348Z,4.10
2017-07-03T23:24:10.621Z,3.70
2017-07-03T23:26:38.911Z,4.45
2017-07-03T23:29:07.177Z,3.55
2017-07-03T23:31:35.468Z,3.33
2017-07-03T23:34:03.736Z,3.70
2017-07-03T23:36:32.019Z,3.90
2017-07-03T23:39:00.283Z,4.03
2017-07-03T23:41:28.568Z,3.50
2017-07-03T23:43:56.845Z,3.53
2017-07-03T23:46:25.127Z,3.25
2017-07-03T23:48:53.406Z,4.20
2017-07-03T23:51:21.679Z,3.50
2017-07-03T23:53:49.959Z,3.20
2017-07-03T23:56:18.228Z,3.55
2017-07-03T23:58:46.538Z,4.22
